sensor_id;sensor_type;location;lat;lon;timestamp;pressure;altitude;pressure_sealevel;temperature;humidity
77013;BME280;67260;53.130;17.982;2023-02-15T00:01:42;102960.21;;;1.45;78.31
77013;BME280;67260;53.130;17.982;2023-02-15T00:04:13;102958.50;;;1.47;78.07
77013;BME280;67260;53.130;17.982;2023-02-15T00:06:40;102962.08;;;1.51;78.15
77013;BME280;67260;53.130;17.982;2023-02-15T00:09:09;102960.83;;;1.57;78.03
77013;BME280;67260;53.130;17.982;2023-02-15T00:11:36;102960.67;;;1.63;77.91
77013;BME280;67260;53.130;17.982;2023-02-15T00:14:11;102961.55;;;1.69;78.03
77013;BME280;67260;53.130;17.982;2023-02-15T00:16:40;102960.17;;;1.74;77.88
77013;BME280;67260;53.130;17.982;2023-02-15T00:19:08;102958.14;;;1.79;77.95
77013;BME280;67260;53.130;17.982;2023-02-15T00:21:36;102956.19;;;1.82;77.96
77013;BME280;67260;53.130;17.982;2023-02-15T00:24:05;102956.27;;;1.86;77.83
77013;BME280;67260;53.130;17.982;2023-02-15T00:26:33;102955.54;;;1.87;77.74
77013;BME280;67260;53.130;17.982;2023-02-15T00:29:02;102954.86;;;1.83;77.77
77013;BME280;67260;53.130;17.982;2023-02-15T00:31:29;102954.91;;;1.82;77.79
77013;BME280;67260;53.130;17.982;2023-02-15T00:34:03;102949.58;;;1.78;77.78
77013;BME280;67260;53.130;17.982;2023-02-15T00:36:30;102950.55;;;1.77;77.72
77013;BME280;67260;53.130;17.982;2023-02-15T00:38:58;102950.88;;;1.75;77.57
77013;BME280;67260;53.130;17.982;2023-02-15T00:41:25;102947.40;;;1.74;77.73
77013;BME280;67260;53.130;17.982;2023-02-15T00:43:51;102947.51;;;1.75;77.67
77013;BME280;67260;53.130;17.982;2023-02-15T00:46:18;102944.98;;;1.82;77.79
77013;BME280;67260;53.130;17.982;2023-02-15T00:48:45;102943.82;;;1.87;77.60
77013;BME280;67260;53.130;17.982;2023-02-15T00:51:12;102945.98;;;1.88;77.60
77013;BME280;67260;53.130;17.982;2023-02-15T00:53:39;102943.14;;;1.89;77.56
77013;BME280;67260;53.130;17.982;2023-02-15T00:56:05;102944.28;;;1.91;77.61
77013;BME280;67260;53.130;17.982;2023-02-15T00:58:32;102946.92;;;1.90;77.58
77013;BME280;67260;53.130;17.982;2023-02-15T01:01:09;102939.60;;;1.90;77.68
77013;BME280;67260;53.130;17.982;2023-02-15T01:03:36;102936.16;;;1.92;77.74
77013;BME280;67260;53.130;17.982;2023-02-15T01:06:03;102935.76;;;1.93;77.71
77013;BME280;67260;53.130;17.982;2023-02-15T01:08:30;102933.48;;;1.93;77.66
77013;BME280;67260;53.130;17.982;2023-02-15T01:11:06;102935.10;;;1.92;77.62
77013;BME280;67260;53.130;17.982;2023-02-15T01:13:33;102931.79;;;1.92;77.70
77013;BME280;67260;53.130;17.982;2023-02-15T01:16:01;102932.98;;;1.92;77.70
77013;BME280;67260;53.130;17.982;2023-02-15T01:18:28;102935.02;;;1.96;77.65
77013;BME280;67260;53.130;17.982;2023-02-15T01:20:55;102933.91;;;2.00;77.68
77013;BME280;67260;53.130;17.982;2023-02-15T01:23:22;102930.55;;;2.00;77.50
77013;BME280;67260;53.130;17.982;2023-02-15T01:25:48;102924.94;;;2.01;77.67
77013;BME280;67260;53.130;17.982;2023-02-15T01:28:15;102919.35;;;2.04;77.65
77013;BME280;67260;53.130;17.982;2023-02-15T01:30:42;102918.52;;;2.06;77.63
77013;BME280;67260;53.130;17.982;2023-02-15T01:33:10;102915.67;;;2.06;77.62
77013;BME280;67260;53.130;17.982;2023-02-15T01:35:45;102910.63;;;2.03;77.63
77013;BME280;67260;53.130;17.982;2023-02-15T01:38:13;102907.20;;;2.02;77.75
77013;BME280;67260;53.130;17.982;2023-02-15T01:40:40;102904.02;;;2.03;77.72
77013;BME280;67260;53.130;17.982;2023-02-15T01:43:11;102898.91;;;2.04;77.69
77013;BME280;67260;53.130;17.982;2023-02-15T01:45:39;102898.16;;;2.04;77.79
77013;BME280;67260;53.130;17.982;2023-02-15T01:50:44;102894.90;;;2.03;77.78
77013;BME280;67260;53.130;17.982;2023-02-15T01:53:34;102897.25;;;2.03;77.70
77013;BME280;67260;53.130;17.982;2023-02-15T01:56:11;102893.30;;;2.04;77.78
77013;BME280;67260;53.130;17.982;2023-02-15T01:58:41;102893.61;;;2.07;77.77
77013;BME280;67260;53.130;17.982;2023-02-15T02:01:09;102891.69;;;2.12;77.67
77013;BME280;67260;53.130;17.982;2023-02-15T02:03:43;102891.08;;;2.19;77.75
77013;BME280;67260;53.130;17.982;2023-02-15T02:06:14;102893.46;;;2.25;77.59
77013;BME280;67260;53.130;17.982;2023-02-15T02:08:41;102891.73;;;2.25;77.54
77013;BME280;67260;53.130;17.982;2023-02-15T02:11:13;102888.36;;;2.17;77.52
77013;BME280;67260;53.130;17.982;2023-02-15T02:13:42;102885.37;;;2.13;77.70
77013;BME280;67260;53.130;17.982;2023-02-15T02:16:25;102883.31;;;2.09;77.64
77013;BME280;67260;53.130;17.982;2023-02-15T02:19:19;102877.89;;;2.02;77.72
77013;BME280;67260;53.130;17.982;2023-02-15T02:21:59;102879.05;;;1.91;77.69
77013;BME280;67260;53.130;17.982;2023-02-15T02:24:59;102881.55;;;1.80;77.88
77013;BME280;67260;53.130;17.982;2023-02-15T02:38:11;102880.03;;;1.28;78.43
77013;BME280;67260;53.130;17.982;2023-02-15T02:41:54;102880.92;;;1.25;78.53
77013;BME280;67260;53.130;17.982;2023-02-15T02:46:58;102876.08;;;1.24;78.66
77013;BME280;67260;53.130;17.982;2023-02-15T02:49:34;102876.55;;;1.25;78.67
77013;BME280;67260;53.130;17.982;2023-02-15T02:52:04;102875.64;;;1.29;78.82
77013;BME280;67260;53.130;17.982;2023-02-15T02:54:34;102874.42;;;1.31;78.66
77013;BME280;67260;53.130;17.982;2023-02-15T02:57:04;102873.59;;;1.31;78.76
77013;BME280;67260;53.130;17.982;2023-02-15T02:59:37;102872.01;;;1.28;78.82
77013;BME280;67260;53.130;17.982;2023-02-15T03:02:13;102866.20;;;1.26;78.84
77013;BME280;67260;53.130;17.982;2023-02-15T03:04:47;102868.02;;;1.25;78.95
77013;BME280;67260;53.130;17.982;2023-02-15T03:07:19;102864.83;;;1.26;78.97
77013;BME280;67260;53.130;17.982;2023-02-15T03:09:51;102862.85;;;1.26;78.92
77013;BME280;67260;53.130;17.982;2023-02-15T03:12:21;102859.92;;;1.28;78.89
77013;BME280;67260;53.130;17.982;2023-02-15T03:14:52;102859.65;;;1.30;78.89
77013;BME280;67260;53.130;17.982;2023-02-15T03:17:22;102857.88;;;1.31;78.89
77013;BME280;67260;53.130;17.982;2023-02-15T03:19:51;102860.83;;;1.34;78.83
77013;BME280;67260;53.130;17.982;2023-02-15T03:22:27;102861.10;;;1.41;78.90
77013;BME280;67260;53.130;17.982;2023-02-15T03:25:17;102854.21;;;1.50;78.68
77013;BME280;67260;53.130;17.982;2023-02-15T03:27:49;102857.77;;;1.58;78.63
77013;BME280;67260;53.130;17.982;2023-02-15T03:30:20;102857.20;;;1.64;78.51
77013;BME280;67260;53.130;17.982;2023-02-15T03:32:49;102856.27;;;1.71;78.50
77013;BME280;67260;53.130;17.982;2023-02-15T03:35:21;102854.25;;;1.75;78.18
77013;BME280;67260;53.130;17.982;2023-02-15T03:37:59;102852.98;;;1.78;78.07
77013;BME280;67260;53.130;17.982;2023-02-15T03:40:38;102852.87;;;1.83;78.03
77013;BME280;67260;53.130;17.982;2023-02-15T03:48:47;102851.45;;;1.86;77.87
77013;BME280;67260;53.130;17.982;2023-02-15T03:51:20;102849.67;;;1.87;78.03
77013;BME280;67260;53.130;17.982;2023-02-15T03:54:08;102846.71;;;1.86;78.06
77013;BME280;67260;53.130;17.982;2023-02-15T03:56:39;102843.90;;;1.87;78.07
77013;BME280;67260;53.130;17.982;2023-02-15T03:59:06;102841.50;;;1.86;77.86
77013;BME280;67260;53.130;17.982;2023-02-15T04:02:14;102841.54;;;1.85;77.97
77013;BME280;67260;53.130;17.982;2023-02-15T04:04:46;102844.48;;;1.86;78.01
77013;BME280;67260;53.130;17.982;2023-02-15T04:07:13;102841.36;;;1.88;78.09
77013;BME280;67260;53.130;17.982;2023-02-15T04:09:40;102842.48;;;1.89;77.87
77013;BME280;67260;53.130;17.982;2023-02-15T04:12:45;102841.23;;;1.92;77.81
77013;BME280;67260;53.130;17.982;2023-02-15T04:15:12;102841.97;;;1.98;77.86
77013;BME280;67260;53.130;17.982;2023-02-15T04:17:57;102843.65;;;2.04;77.90
77013;BME280;67260;53.130;17.982;2023-02-15T04:20:24;102841.03;;;2.09;77.92
77013;BME280;67260;53.130;17.982;2023-02-15T04:23:09;102840.67;;;2.12;77.86
77013;BME280;67260;53.130;17.982;2023-02-15T04:25:55;102842.09;;;2.09;77.65
77013;BME280;67260;53.130;17.982;2023-02-15T04:28:21;102841.94;;;2.06;77.77
77013;BME280;67260;53.130;17.982;2023-02-15T04:30:48;102842.69;;;2.05;77.88
77013;BME280;67260;53.130;17.982;2023-02-15T04:33:15;102839.70;;;2.06;77.93
77013;BME280;67260;53.130;17.982;2023-02-15T04:35:43;102836.95;;;2.05;77.98
77013;BME280;67260;53.130;17.982;2023-02-15T04:38:11;102841.40;;;2.07;77.86
77013;BME280;67260;53.130;17.982;2023-02-15T04:40:38;102839.42;;;2.07;77.78
77013;BME280;67260;53.130;17.982;2023-02-15T04:43:05;102836.68;;;2.06;77.96
77013;BME280;67260;53.130;17.982;2023-02-15T04:45:32;102840.05;;;2.03;77.88
77013;BME280;67260;53.130;17.982;2023-02-15T04:47:58;102832.16;;;2.03;77.86
77013;BME280;67260;53.130;17.982;2023-02-15T04:50:25;102826.21;;;2.06;77.81
77013;BME280;67260;53.130;17.982;2023-02-15T04:52:52;102823.14;;;2.10;77.73
77013;BME280;67260;53.130;17.982;2023-02-15T04:55:19;102826.69;;;2.14;77.60
77013;BME280;67260;53.130;17.982;2023-02-15T04:57:46;102824.18;;;2.15;77.52
77013;BME280;67260;53.130;17.982;2023-02-15T05:00:13;102822.08;;;2.15;77.36
77013;BME280;67260;53.130;17.982;2023-02-15T05:02:40;102823.17;;;2.15;77.42
77013;BME280;67260;53.130;17.982;2023-02-15T05:05:07;102825.05;;;2.13;77.53
77013;BME280;67260;53.130;17.982;2023-02-15T05:07:35;102827.23;;;2.11;77.53
77013;BME280;67260;53.130;17.982;2023-02-15T05:10:02;102823.98;;;2.10;77.47
77013;BME280;67260;53.130;17.982;2023-02-15T05:12:29;102823.91;;;2.07;77.48
77013;BME280;67260;53.130;17.982;2023-02-15T05:14:56;102822.08;;;2.05;77.47
77013;BME280;67260;53.130;17.982;2023-02-15T05:17:22;102822.91;;;2.03;77.52
77013;BME280;67260;53.130;17.982;2023-02-15T05:19:49;102822.19;;;2.01;77.59
77013;BME280;67260;53.130;17.982;2023-02-15T05:22:16;102821.52;;;1.98;77.55
77013;BME280;67260;53.130;17.982;2023-02-15T05:24:42;102825.05;;;1.97;77.51
77013;BME280;67260;53.130;17.982;2023-02-15T05:27:28;102828.99;;;1.99;77.56
77013;BME280;67260;53.130;17.982;2023-02-15T05:30:13;102822.41;;;2.00;77.46
77013;BME280;67260;53.130;17.982;2023-02-15T05:32:40;102827.05;;;2.04;77.39
77013;BME280;67260;53.130;17.982;2023-02-15T05:35:07;102824.48;;;2.08;77.44
77013;BME280;67260;53.130;17.982;2023-02-15T05:37:34;102829.89;;;2.11;77.44
77013;BME280;67260;53.130;17.982;2023-02-15T05:40:00;102828.16;;;2.13;77.28
77013;BME280;67260;53.130;17.982;2023-02-15T05:42:27;102826.74;;;2.16;77.19
77013;BME280;67260;53.130;17.982;2023-02-15T05:44:54;102824.50;;;2.18;77.36
77013;BME280;67260;53.130;17.982;2023-02-15T05:47:20;102819.33;;;2.20;77.37
77013;BME280;67260;53.130;17.982;2023-02-15T05:49:47;102821.19;;;2.18;77.20
77013;BME280;67260;53.130;17.982;2023-02-15T05:52:14;102818.02;;;2.13;77.29
77013;BME280;67260;53.130;17.982;2023-02-15T05:54:40;102817.20;;;2.10;77.30
77013;BME280;67260;53.130;17.982;2023-02-15T05:57:07;102815.02;;;2.04;77.38
77013;BME280;67260;53.130;17.982;2023-02-15T05:59:34;102814.70;;;2.01;77.55
77013;BME280;67260;53.130;17.982;2023-02-15T06:02:01;102816.52;;;2.00;77.52
77013;BME280;67260;53.130;17.982;2023-02-15T06:04:27;102817.95;;;1.99;77.67
77013;BME280;67260;53.130;17.982;2023-02-15T06:06:54;102816.05;;;1.99;77.70
77013;BME280;67260;53.130;17.982;2023-02-15T06:09:20;102821.85;;;2.01;77.61
77013;BME280;67260;53.130;17.982;2023-02-15T06:11:47;102817.36;;;2.03;77.43
77013;BME280;67260;53.130;17.982;2023-02-15T06:14:14;102815.59;;;2.06;77.61
77013;BME280;67260;53.130;17.982;2023-02-15T06:16:41;102817.06;;;2.12;77.58
77013;BME280;67260;53.130;17.982;2023-02-15T06:19:07;102811.28;;;2.17;77.49
77013;BME280;67260;53.130;17.982;2023-02-15T06:21:34;102807.59;;;2.23;77.46
77013;BME280;67260;53.130;17.982;2023-02-15T06:24:00;102809.90;;;2.27;77.50
77013;BME280;67260;53.130;17.982;2023-02-15T06:26:27;102812.45;;;2.34;77.48
77013;BME280;67260;53.130;17.982;2023-02-15T06:28:54;102810.39;;;2.39;77.39
77013;BME280;67260;53.130;17.982;2023-02-15T06:31:20;102809.43;;;2.40;77.39
77013;BME280;67260;53.130;17.982;2023-02-15T06:33:47;102807.52;;;2.40;77.45
77013;BME280;67260;53.130;17.982;2023-02-15T06:36:14;102806.30;;;2.43;77.51
77013;BME280;67260;53.130;17.982;2023-02-15T06:38:40;102808.20;;;2.43;77.47
77013;BME280;67260;53.130;17.982;2023-02-15T06:41:07;102806.40;;;2.46;77.60
77013;BME280;67260;53.130;17.982;2023-02-15T06:43:34;102805.61;;;2.50;77.67
77013;BME280;67260;53.130;17.982;2023-02-15T06:46:01;102806.61;;;2.53;77.45
77013;BME280;67260;53.130;17.982;2023-02-15T06:48:27;102806.33;;;2.55;77.21
77013;BME280;67260;53.130;17.982;2023-02-15T06:50:54;102803.11;;;2.53;77.27
77013;BME280;67260;53.130;17.982;2023-02-15T06:53:21;102802.83;;;2.55;77.24
77013;BME280;67260;53.130;17.982;2023-02-15T06:55:47;102798.88;;;2.56;77.24
77013;BME280;67260;53.130;17.982;2023-02-15T06:58:14;102798.59;;;2.58;77.36
77013;BME280;67260;53.130;17.982;2023-02-15T07:00:41;102800.16;;;2.61;77.17
77013;BME280;67260;53.130;17.982;2023-02-15T07:03:07;102796.88;;;2.63;77.03
77013;BME280;67260;53.130;17.982;2023-02-15T07:05:34;102793.39;;;2.65;77.18
77013;BME280;67260;53.130;17.982;2023-02-15T07:08:01;102790.56;;;2.66;77.09
77013;BME280;67260;53.130;17.982;2023-02-15T07:10:28;102787.32;;;2.65;77.02
77013;BME280;67260;53.130;17.982;2023-02-15T07:12:54;102784.78;;;2.63;77.12
77013;BME280;67260;53.130;17.982;2023-02-15T07:15:21;102782.19;;;2.60;77.13
77013;BME280;67260;53.130;17.982;2023-02-15T07:17:49;102781.09;;;2.58;77.15
77013;BME280;67260;53.130;17.982;2023-02-15T07:20:21;102780.45;;;2.60;77.32
77013;BME280;67260;53.130;17.982;2023-02-15T07:22:49;102769.59;;;2.63;77.39
77013;BME280;67260;53.130;17.982;2023-02-15T07:25:16;102771.95;;;2.67;77.22
77013;BME280;67260;53.130;17.982;2023-02-15T07:27:44;102771.63;;;2.69;77.20
77013;BME280;67260;53.130;17.982;2023-02-15T07:30:14;102769.42;;;2.71;77.26
77013;BME280;67260;53.130;17.982;2023-02-15T07:32:42;102775.38;;;2.75;77.32
77013;BME280;67260;53.130;17.982;2023-02-15T07:35:27;102775.55;;;2.83;77.20
77013;BME280;67260;53.130;17.982;2023-02-15T07:37:54;102775.13;;;2.91;77.21
77013;BME280;67260;53.130;17.982;2023-02-15T07:40:20;102774.88;;;3.00;77.06
77013;BME280;67260;53.130;17.982;2023-02-15T07:42:50;102772.46;;;3.07;76.93
77013;BME280;67260;53.130;17.982;2023-02-15T07:45:21;102773.44;;;3.13;76.78
77013;BME280;67260;53.130;17.982;2023-02-15T07:47:48;102771.60;;;3.14;76.79
77013;BME280;67260;53.130;17.982;2023-02-15T07:50:15;102767.27;;;3.13;76.81
77013;BME280;67260;53.130;17.982;2023-02-15T07:52:42;102769.22;;;3.18;76.85
77013;BME280;67260;53.130;17.982;2023-02-15T07:55:09;102765.70;;;3.23;76.71
77013;BME280;67260;53.130;17.982;2023-02-15T07:57:42;102756.55;;;3.29;76.71
77013;BME280;67260;53.130;17.982;2023-02-15T08:00:12;102756.02;;;3.36;76.51
77013;BME280;67260;53.130;17.982;2023-02-15T08:02:39;102755.42;;;3.42;76.43
77013;BME280;67260;53.130;17.982;2023-02-15T08:05:07;102750.80;;;3.43;76.20
77013;BME280;67260;53.130;17.982;2023-02-15T08:07:33;102747.25;;;3.44;76.20
77013;BME280;67260;53.130;17.982;2023-02-15T08:10:00;102741.28;;;3.46;76.22
77013;BME280;67260;53.130;17.982;2023-02-15T08:12:27;102739.09;;;3.47;76.19
77013;BME280;67260;53.130;17.982;2023-02-15T08:14:54;102729.77;;;3.50;76.18
77013;BME280;67260;53.130;17.982;2023-02-15T08:17:21;102728.67;;;3.55;76.08
77013;BME280;67260;53.130;17.982;2023-02-15T08:19:47;102725.83;;;3.58;76.08
77013;BME280;67260;53.130;17.982;2023-02-15T08:22:14;102720.58;;;3.58;75.96
77013;BME280;67260;53.130;17.982;2023-02-15T08:24:41;102716.94;;;3.56;75.93
77013;BME280;67260;53.130;17.982;2023-02-15T08:27:08;102715.99;;;3.52;75.83
77013;BME280;67260;53.130;17.982;2023-02-15T08:29:37;102714.87;;;3.48;76.08
77013;BME280;67260;53.130;17.982;2023-02-15T08:32:06;102716.41;;;3.46;76.23
77013;BME280;67260;53.130;17.982;2023-02-15T08:34:36;102717.51;;;3.50;76.10
77013;BME280;67260;53.130;17.982;2023-02-15T08:37:04;102716.19;;;3.52;76.10
77013;BME280;67260;53.130;17.982;2023-02-15T08:39:32;102717.80;;;3.49;76.06
77013;BME280;67260;53.130;17.982;2023-02-15T08:41:59;102713.10;;;3.43;76.12
77013;BME280;67260;53.130;17.982;2023-02-15T08:44:26;102712.40;;;3.36;76.21
77013;BME280;67260;53.130;17.982;2023-02-15T08:46:53;102710.05;;;3.35;76.35
77013;BME280;67260;53.130;17.982;2023-02-15T08:49:21;102704.40;;;3.40;76.50
77013;BME280;67260;53.130;17.982;2023-02-15T08:51:49;102698.41;;;3.53;76.44
77013;BME280;67260;53.130;17.982;2023-02-15T08:54:18;102695.05;;;3.70;76.21
77013;BME280;67260;53.130;17.982;2023-02-15T08:56:46;102694.21;;;3.86;75.96
77013;BME280;67260;53.130;17.982;2023-02-15T08:59:18;102690.42;;;4.04;75.79
77013;BME280;67260;53.130;17.982;2023-02-15T09:01:45;102688.25;;;4.24;75.53
77013;BME280;67260;53.130;17.982;2023-02-15T09:04:12;102685.95;;;4.45;75.50
77013;BME280;67260;53.130;17.982;2023-02-15T09:06:41;102688.24;;;4.68;74.90
77013;BME280;67260;53.130;17.982;2023-02-15T09:09:08;102686.78;;;4.88;74.54
77013;BME280;67260;53.130;17.982;2023-02-15T09:11:37;102686.14;;;5.05;74.19
77013;BME280;67260;53.130;17.982;2023-02-15T09:14:10;102681.86;;;5.19;73.22
77013;BME280;67260;53.130;17.982;2023-02-15T09:16:41;102679.19;;;5.28;72.90
77013;BME280;67260;53.130;17.982;2023-02-15T09:19:08;102680.83;;;5.32;72.46
77013;BME280;67260;53.130;17.982;2023-02-15T09:21:36;102679.64;;;5.38;72.68
77013;BME280;67260;53.130;17.982;2023-02-15T09:24:06;102680.58;;;5.41;72.05
77013;BME280;67260;53.130;17.982;2023-02-15T09:26:36;102678.16;;;5.42;71.83
77013;BME280;67260;53.130;17.982;2023-02-15T09:29:03;102680.36;;;5.46;71.85
77013;BME280;67260;53.130;17.982;2023-02-15T09:31:33;102677.54;;;5.50;72.12
77013;BME280;67260;53.130;17.982;2023-02-15T09:34:00;102678.40;;;5.57;71.76
77013;BME280;67260;53.130;17.982;2023-02-15T09:36:35;102680.38;;;5.61;71.47
77013;BME280;67260;53.130;17.982;2023-02-15T09:39:14;102676.62;;;5.70;71.60
77013;BME280;67260;53.130;17.982;2023-02-15T10:04:08;102644.24;;;6.26;67.45
77013;BME280;67260;53.130;17.982;2023-02-15T10:06:51;102647.41;;;6.18;67.69
77013;BME280;67260;53.130;17.982;2023-02-15T10:09:46;102646.53;;;6.22;68.33
77013;BME280;67260;53.130;17.982;2023-02-15T10:20:21;102639.33;;;6.16;67.19
77013;BME280;67260;53.130;17.982;2023-02-15T10:27:52;102632.65;;;6.16;67.31
77013;BME280;67260;53.130;17.982;2023-02-15T10:30:22;102637.63;;;6.16;67.17
77013;BME280;67260;53.130;17.982;2023-02-15T10:33:02;102639.52;;;6.12;67.30
77013;BME280;67260;53.130;17.982;2023-02-15T10:38:46;102629.88;;;5.93;67.09
77013;BME280;67260;53.130;17.982;2023-02-15T10:47:17;102625.69;;;6.01;67.78
77013;BME280;67260;53.130;17.982;2023-02-15T10:49:59;102621.40;;;6.02;67.45
77013;BME280;67260;53.130;17.982;2023-02-15T10:52:46;102622.71;;;5.97;66.86
77013;BME280;67260;53.130;17.982;2023-02-15T10:56:10;102619.56;;;5.90;67.71
77013;BME280;67260;53.130;17.982;2023-02-15T10:58:38;102617.95;;;5.86;67.10
77013;BME280;67260;53.130;17.982;2023-02-15T11:07:12;102606.86;;;5.93;67.14
77013;BME280;67260;53.130;17.982;2023-02-15T11:09:49;102601.77;;;6.07;67.58
77013;BME280;67260;53.130;17.982;2023-02-15T11:12:21;102595.68;;;6.26;67.15
77013;BME280;67260;53.130;17.982;2023-02-15T11:14:55;102595.20;;;6.40;66.65
77013;BME280;67260;53.130;17.982;2023-02-15T11:17:38;102590.30;;;6.47;66.70
77013;BME280;67260;53.130;17.982;2023-02-15T11:20:45;102590.45;;;6.50;66.31
77013;BME280;67260;53.130;17.982;2023-02-15T11:23:16;102589.33;;;6.61;66.43
77013;BME280;67260;53.130;17.982;2023-02-15T11:25:47;102583.61;;;6.68;66.01
77013;BME280;67260;53.130;17.982;2023-02-15T11:28:24;102579.52;;;6.72;65.72
77013;BME280;67260;53.130;17.982;2023-02-15T11:30:55;102570.52;;;6.76;64.71
77013;BME280;67260;53.130;17.982;2023-02-15T11:33:28;102573.83;;;6.77;65.23
77013;BME280;67260;53.130;17.982;2023-02-15T11:35:58;102565.69;;;6.85;65.42
77013;BME280;67260;53.130;17.982;2023-02-15T11:38:32;102561.64;;;6.93;65.31
77013;BME280;67260;53.130;17.982;2023-02-15T11:45:57;102553.36;;;7.10;65.18
77013;BME280;67260;53.130;17.982;2023-02-15T11:48:23;102551.55;;;7.14;65.01
77013;BME280;67260;53.130;17.982;2023-02-15T11:50:50;102549.83;;;7.06;64.84
77013;BME280;67260;53.130;17.982;2023-02-15T11:53:19;102549.48;;;6.99;65.26
77013;BME280;67260;53.130;17.982;2023-02-15T11:55:54;102546.06;;;6.96;65.24
77013;BME280;67260;53.130;17.982;2023-02-15T11:58:35;102549.41;;;6.96;65.25
77013;BME280;67260;53.130;17.982;2023-02-15T12:01:38;102548.86;;;7.11;65.50
77013;BME280;67260;53.130;17.982;2023-02-15T12:04:17;102546.51;;;7.39;65.12
77013;BME280;67260;53.130;17.982;2023-02-15T12:06:53;102540.64;;;7.56;63.97
77013;BME280;67260;53.130;17.982;2023-02-15T12:09:33;102535.14;;;7.49;63.94
77013;BME280;67260;53.130;17.982;2023-02-15T12:14:57;102533.23;;;7.66;64.22
77013;BME280;67260;53.130;17.982;2023-02-15T12:17:26;102530.45;;;7.78;63.79
77013;BME280;67260;53.130;17.982;2023-02-15T12:20:01;102526.30;;;7.79;63.44
77013;BME280;67260;53.130;17.982;2023-02-15T12:22:33;102521.69;;;7.83;63.79
77013;BME280;67260;53.130;17.982;2023-02-15T12:25:19;102520.17;;;7.84;63.43
77013;BME280;67260;53.130;17.982;2023-02-15T12:27:47;102515.18;;;7.83;63.15
77013;BME280;67260;53.130;17.982;2023-02-15T12:30:24;102513.92;;;7.81;62.81
77013;BME280;67260;53.130;17.982;2023-02-15T12:32:57;102513.58;;;7.78;63.16
77013;BME280;67260;53.130;17.982;2023-02-15T12:35:30;102508.90;;;7.75;63.50
77013;BME280;67260;53.130;17.982;2023-02-15T12:38:05;102508.63;;;7.78;63.12
77013;BME280;67260;53.130;17.982;2023-02-15T12:40:58;102508.45;;;7.80;62.90
77013;BME280;67260;53.130;17.982;2023-02-15T12:43:34;102503.15;;;7.72;62.74
77013;BME280;67260;53.130;17.982;2023-02-15T12:48:40;102492.11;;;7.59;62.84
77013;BME280;67260;53.130;17.982;2023-02-15T12:51:09;102491.98;;;7.54;62.61
77013;BME280;67260;53.130;17.982;2023-02-15T12:53:39;102490.06;;;7.52;62.66
77013;BME280;67260;53.130;17.982;2023-02-15T12:56:09;102488.83;;;7.45;63.27
77013;BME280;67260;53.130;17.982;2023-02-15T12:58:37;102485.60;;;7.45;63.45
77013;BME280;67260;53.130;17.982;2023-02-15T13:01:18;102484.00;;;7.40;63.28
77013;BME280;67260;53.130;17.982;2023-02-15T13:06:34;102476.85;;;7.62;63.36
77013;BME280;67260;53.130;17.982;2023-02-15T13:09:40;102470.91;;;7.74;63.25
77013;BME280;67260;53.130;17.982;2023-02-15T13:12:28;102465.93;;;7.76;62.51
77013;BME280;67260;53.130;17.982;2023-02-15T13:14:57;102462.34;;;7.70;62.49
77013;BME280;67260;53.130;17.982;2023-02-15T13:17:28;102460.98;;;7.60;62.71
77013;BME280;67260;53.130;17.982;2023-02-15T13:20:00;102460.48;;;7.59;62.81
77013;BME280;67260;53.130;17.982;2023-02-15T13:22:33;102456.89;;;7.67;62.87
77013;BME280;67260;53.130;17.982;2023-02-15T13:25:13;102459.02;;;7.76;62.78
77013;BME280;67260;53.130;17.982;2023-02-15T13:27:42;102457.61;;;7.82;62.27
77013;BME280;67260;53.130;17.982;2023-02-15T13:30:31;102458.55;;;7.78;62.28
77013;BME280;67260;53.130;17.982;2023-02-15T13:33:06;102459.02;;;7.69;62.43
77013;BME280;67260;53.130;17.982;2023-02-15T13:39:48;102457.13;;;7.33;62.82
77013;BME280;67260;53.130;17.982;2023-02-15T13:44:25;102451.33;;;7.12;63.36
77013;BME280;67260;53.130;17.982;2023-02-15T13:47:09;102449.09;;;7.02;63.36
77013;BME280;67260;53.130;17.982;2023-02-15T13:52:23;102440.50;;;6.92;63.51
77013;BME280;67260;53.130;17.982;2023-02-15T14:00:22;102436.66;;;6.75;63.78
77013;BME280;67260;53.130;17.982;2023-02-15T14:03:26;102439.39;;;6.72;63.92
77013;BME280;67260;53.130;17.982;2023-02-15T14:11:44;102431.36;;;6.62;64.11
77013;BME280;67260;53.130;17.982;2023-02-15T14:19:24;102428.96;;;6.43;64.09
77013;BME280;67260;53.130;17.982;2023-02-15T14:24:47;102431.33;;;6.25;64.44
77013;BME280;67260;53.130;17.982;2023-02-15T14:27:27;102431.31;;;6.17;64.75
77013;BME280;67260;53.130;17.982;2023-02-15T14:30:10;102427.77;;;6.11;64.93
77013;BME280;67260;53.130;17.982;2023-02-15T14:32:42;102423.46;;;6.13;64.78
77013;BME280;67260;53.130;17.982;2023-02-15T14:35:16;102419.81;;;6.16;65.09
77013;BME280;67260;53.130;17.982;2023-02-15T14:38:02;102421.09;;;6.19;65.06
77013;BME280;67260;53.130;17.982;2023-02-15T14:40:51;102420.41;;;6.25;65.12
77013;BME280;67260;53.130;17.982;2023-02-15T14:46:31;102417.45;;;6.19;64.83
77013;BME280;67260;53.130;17.982;2023-02-15T14:49:06;102409.66;;;6.09;64.95
77013;BME280;67260;53.130;17.982;2023-02-15T14:54:11;102402.96;;;5.74;65.68
77013;BME280;67260;53.130;17.982;2023-02-15T15:10:39;102386.42;;;5.38;66.68
77013;BME280;67260;53.130;17.982;2023-02-15T15:19:05;102376.33;;;5.10;67.25
77013;BME280;67260;53.130;17.982;2023-02-15T15:21:56;102377.16;;;5.04;67.45
77013;BME280;67260;53.130;17.982;2023-02-15T15:33:04;102371.80;;;4.91;68.13
77013;BME280;67260;53.130;17.982;2023-02-15T15:41:17;102365.54;;;4.65;68.45
77013;BME280;67260;53.130;17.982;2023-02-15T15:43:59;102365.30;;;4.55;68.78
77013;BME280;67260;53.130;17.982;2023-02-15T15:46:41;102355.92;;;4.48;68.88
77013;BME280;67260;53.130;17.982;2023-02-15T15:49:16;102355.80;;;4.43;68.84